Time;durP1;ratioP1;P1;durP2;ratioP2;P2;SDS_P1;SDS_P2;PMS_P1;PMS_P2;Temp;Humidity;BMP_temperature;BMP_pressure;BME280_temperature;BME280_humidity;BME280_pressure;Samples;Min_cycle;Max_cycle;Signal;HPM_P1;HPM_P2
2022/09/12 00:01:28;;;;;;;;;;;;;;;;;;;;;
2022/09/12 00:10:21;;;;;;;;;14.67;10.67;;;;;;;;4863133;28;45461;-82
2022/09/12 00:13:01;;;;;;;;;12.00;12.00;;;;;;;;4861137;29;45396;-82
2022/09/12 00:28:03;;;;;;;;;;;;;;;;;;;;;
2022/09/12 00:37:14;;;;;;;;;26.67;21.00;;;;;;;;4964060;28;46693;-82
2022/09/12 00:39:45;;;;;;;;;18.00;15.00;;;;;;;;4944808;28;45420;-80
2022/09/12 00:45:34;;;;;;;;;15.33;15.33;;;;;;;;4887190;29;45456;-80
2022/09/12 00:48:38;;;;;;;;;15.67;15.00;;;;;;;;4963004;28;45425;-81
2022/09/12 00:54:52;;;;;;;;;18.67;15.67;;;;;;;;4945706;28;45575;-82
2022/09/12 01:01:40;;;;;;;;;;;;;;;;;;;;;
2022/09/12 01:06:45;;;;;;;;;17.00;14.67;;;;;;;;5001390;28;45498;-80
2022/09/12 01:09:37;;;;;;;;;14.67;14.33;;;;;;;;4996326;28;45501;-80
2022/09/12 01:12:33;;;;;;;;;;;;;;;;;;;;;
2022/09/12 01:18:40;;;;;;;;;17.67;15.00;;;;;;;;5035997;28;45477;-81
2022/09/12 01:21:17;;;;;;;;;;;;;;;;;;;;;
2022/09/12 01:27:12;;;;;;;;;19.67;18.00;;;;;;;;4983351;28;45713;-80
2022/09/12 01:30:06;;;;;;;;;22.00;20.00;;;;;;;;4945113;28;46805;-80
2022/09/12 01:32:51;;;;;;;;;25.33;21.67;;;;;;;;5062949;28;45360;-79
2022/09/12 01:35:52;;;;;;;;;26.00;24.33;;;;;;;;5083149;28;45326;-79
2022/09/12 01:38:41;;;;;;;;;18.00;15.00;;;;;;;;5075227;28;45428;-80
2022/09/12 01:41:29;;;;;;;;;20.67;20.33;;;;;;;;5084970;28;45424;-81
2022/09/12 01:44:24;;;;;;;;;;;;;;;;;;;;;
2022/09/12 01:47:07;;;;;;;;;25.00;21.00;;;;;;;;5038151;28;69112;-83
2022/09/12 01:49:57;;;;;;;;;30.00;27.33;;;;;;;;5063285;28;45390;-80
2022/09/12 01:52:53;;;;;;;;;;;;;;;;;;;;;
2022/09/12 01:55:56;;;;;;;;;23.33;22.00;;;;;;;;5065524;28;72744;-81
2022/09/12 02:02:02;;;;;;;;;24.33;22.33;;;;;;;;5052130;28;45355;-81
2022/09/12 02:08:11;;;;;;;;;19.00;16.67;;;;;;;;5066904;28;45358;-81
2022/09/12 02:30:09;;;;;;;;;23.00;16.33;;;;;;;;4961326;28;46579;-82
2022/09/12 02:38:53;;;;;;;;;20.67;18.33;;;;;;;;4909462;29;45593;-80
2022/09/12 02:41:36;;;;;;;;;16.67;16.67;;;;;;;;4929553;28;45493;-81
2022/09/12 02:44:23;;;;;;;;;20.67;19.33;;;;;;;;4936431;28;45808;-79
2022/09/12 02:53:29;;;;;;;;;;;;;;;;;;;;;
2022/09/12 02:56:36;;;;;;;;;21.67;17.33;;;;;;;;4915530;28;71732;-80
2022/09/12 03:15:00;;;;;;;;;24.00;18.00;;;;;;;;5056605;28;45490;-80
2022/09/12 03:17:57;;;;;;;;;19.67;18.33;;;;;;;;5066914;28;45400;-83
2022/09/12 03:20:54;;;;;;;;;19.00;17.67;;;;;;;;5072516;28;45459;-80
2022/09/12 03:26:57;;;;;;;;;17.67;15.67;;;;;;;;5031546;28;45855;-78
2022/09/12 03:29:46;;;;;;;;;20.00;18.33;;;;;;;;5064730;28;45520;-80
2022/09/12 03:39:25;;;;;;;;;;;;;;;;;;;;;
2022/09/12 03:42:19;;;;;;;;;22.67;20.00;;;;;;;;4942434;28;74685;-81
2022/09/12 03:45:24;;;;;;;;;18.33;14.33;;;;;;;;4950512;28;45524;-81
2022/09/12 03:47:57;;;;;;;;;20.33;16.67;;;;;;;;5049637;28;45557;-79
2022/09/12 03:51:01;;;;;;;;;;;;;;;;;;;;;
2022/09/12 03:53:52;;;;;;;;;21.00;19.00;;;;;;;;5038216;28;74607;-79
2022/09/12 03:56:26;;;;;;;;;22.33;18.67;;;;;;;;5033871;28;45643;-80
2022/09/12 03:59:45;;;;;;;;;;;;;;;;;;;;;
2022/09/12 04:05:49;;;;;;;;;;;;;;;;;;;;;
2022/09/12 04:18:11;;;;;;;;;20.00;15.00;;;;;;;;4990994;28;45237;-81
2022/09/12 04:24:19;;;;;;;;;22.33;17.00;;;;;;;;5063552;28;45360;-79
2022/09/12 04:27:01;;;;;;;;;18.67;16.67;;;;;;;;5037611;28;45702;-80
2022/09/12 04:29:42;;;;;;;;;;;;;;;;;;;;;
2022/09/12 04:35:15;;;;;;;;;18.67;15.67;;;;;;;;5046547;28;45566;-80
2022/09/12 04:47:30;;;;;;;;;23.00;21.00;;;;;;;;4982396;28;45539;-84
2022/09/12 05:00:00;;;;;;;;;;;;;;;;;;;;;
2022/09/12 05:08:41;;;;;;;;;16.33;13.67;;;;;;;;4940735;28;45432;-81
2022/09/12 05:11:24;;;;;;;;;;;;;;;;;;;;;
2022/09/12 05:14:07;;;;;;;;;24.33;22.00;;;;;;;;4926968;28;73246;-80
2022/09/12 05:22:28;;;;;;;;;32.67;22.00;;;;;;;;4910225;28;45407;-79
2022/09/12 05:24:53;;;;;;;;;18.67;17.33;;;;;;;;5001717;28;45588;-77
2022/09/12 05:27:22;;;;;;;;;24.00;19.33;;;;;;;;5054102;28;45512;-81
2022/09/12 05:30:07;;;;;;;;;25.00;19.00;;;;;;;;5054373;28;45520;-80
2022/09/12 05:32:32;;;;;;;;;18.00;15.67;;;;;;;;5074142;28;45399;-80
2022/09/12 05:34:57;;;;;;;;;30.33;23.33;;;;;;;;5043185;28;46121;-82
2022/09/12 05:37:23;;;;;;;;;17.00;14.33;;;;;;;;5058473;28;45454;-79
2022/09/12 05:39:48;;;;;;;;;14.67;13.33;;;;;;;;5060097;28;45438;-80
2022/09/12 05:42:13;;;;;;;;;18.33;16.67;;;;;;;;5046864;28;45984;-82
2022/09/12 05:44:51;;;;;;;;;16.67;15.67;;;;;;;;5060074;28;46177;-86
2022/09/12 05:47:17;;;;;;;;;21.00;17.67;;;;;;;;5067259;28;45428;-84
2022/09/12 05:50:11;;;;;;;;;;;;;;;;;;;;;
2022/09/12 05:52:37;;;;;;;;;15.67;13.67;;;;;;;;5071158;28;69581;-88
2022/09/12 05:58:28;;;;;;;;;;;;;;;;;;;;;
2022/09/12 06:01:02;;;;;;;;;18.00;15.00;;;;;;;;5004364;28;71958;-86
2022/09/12 06:03:42;;;;;;;;;16.33;11.67;;;;;;;;5008151;28;45685;-89
2022/09/12 06:06:21;;;;;;;;;14.00;12.67;;;;;;;;5011612;28;44800;-86
2022/09/12 06:08:48;;;;;;;;;16.33;14.67;;;;;;;;5020622;28;45488;-88
2022/09/12 06:11:19;;;;;;;;;14.00;13.33;;;;;;;;5073345;28;44797;-86
2022/09/12 06:13:51;;;;;;;;;17.00;17.00;;;;;;;;5055360;28;45494;-85
2022/09/12 06:16:24;;;;;;;;;14.00;12.33;;;;;;;;5054634;28;45552;-85
2022/09/12 06:18:57;;;;;;;;;12.67;11.00;;;;;;;;5078350;28;45472;-87
2022/09/12 06:22:00;;;;;;;;;;;;;;;;;;;;;
2022/09/12 06:24:26;;;;;;;;;12.33;11.33;;;;;;;;5059211;28;67849;-85
2022/09/12 06:27:01;;;;;;;;;14.33;11.33;;;;;;;;5054570;28;45858;-87
2022/09/12 06:29:28;;;;;;;;;11.67;10.33;;;;;;;;5052282;28;45664;-84
2022/09/12 06:32:10;;;;;;;;;;;;;;;;;;;;;
2022/09/12 06:34:46;;;;;;;;;9.67;9.67;;;;;;;;5070793;28;45388;-85
2022/09/12 06:37:18;;;;;;;;;9.00;9.00;;;;;;;;5053858;28;45669;-87
2022/09/12 06:39:47;;;;;;;;;11.33;11.00;;;;;;;;5054866;28;45188;-84
2022/09/12 06:42:14;;;;;;;;;15.33;13.00;;;;;;;;5049710;28;46007;-87
2022/09/12 06:44:40;;;;;;;;;11.67;11.33;;;;;;;;5053367;28;45492;-84
2022/09/12 06:47:06;;;;;;;;;11.67;11.67;;;;;;;;5087431;28;45336;-84
2022/09/12 06:49:32;;;;;;;;;10.00;10.00;;;;;;;;5074791;28;45625;-83
2022/09/12 06:52:00;;;;;;;;;12.00;10.33;;;;;;;;5073865;28;44815;-83
2022/09/12 06:54:26;;;;;;;;;13.50;10.00;;;;;;;;5072830;28;45252;-81
2022/09/12 06:56:54;;;;;;;;;13.33;12.67;;;;;;;;5053384;28;45617;-83
2022/09/12 06:59:23;;;;;;;;;13.00;12.00;;;;;;;;5054959;28;45451;-85
2022/09/12 07:01:52;;;;;;;;;14.33;11.67;;;;;;;;5078854;28;44732;-85
2022/09/12 07:04:26;;;;;;;;;12.00;9.50;;;;;;;;5052760;28;45283;-82
2022/09/12 07:06:52;;;;;;;;;10.50;10.50;;;;;;;;5052693;28;45347;-85
2022/09/12 07:09:18;;;;;;;;;11.50;9.50;;;;;;;;5054901;28;47020;-85
2022/09/12 07:11:47;;;;;;;;;12.33;12.33;;;;;;;;5062566;28;45321;-86
2022/09/12 07:14:13;;;;;;;;;12.67;11.67;;;;;;;;5075010;28;44768;-86
2022/09/12 07:16:39;;;;;;;;;12.00;11.00;;;;;;;;5087818;28;44966;-85
2022/09/12 07:19:13;;;;;;;;;10.75;10.75;;;;;;;;5081688;28;45373;-84
2022/09/12 07:21:44;;;;;;;;;12.00;9.50;;;;;;;;5071835;28;45268;-85
2022/09/12 07:24:13;;;;;;;;;12.75;11.00;;;;;;;;5059981;28;45327;-84
2022/09/12 07:26:41;;;;;;;;;10.50;9.50;;;;;;;;5051959;28;45646;-85
2022/09/12 07:29:27;;;;;;;;;12.00;12.00;;;;;;;;5033420;28;48099;-84
2022/09/12 07:31:56;;;;;;;;;9.25;8.00;;;;;;;;5061189;28;44725;-83
2022/09/12 07:34:46;;;;;;;;;;;;;;;;;;;;;
2022/09/12 07:37:32;;;;;;;;;14.50;12.00;;;;;;;;5069622;28;45342;-82
2022/09/12 07:40:40;;;;;;;;;;;;;;;;;;;;;
2022/09/12 07:43:11;;;;;;;;;11.75;11.25;;;;;;;;5021080;28;73206;-85
2022/09/12 07:45:40;;;;;;;;;13.33;13.33;;;;;;;;5033912;28;45235;-85
2022/09/12 07:48:12;;;;;;;;;14.33;12.33;;;;;;;;5053617;28;45371;-85
2022/09/12 07:51:01;;;;;;;;;12.00;12.00;;;;;;;;5051105;28;45782;-84
2022/09/12 07:53:31;;;;;;;;;12.33;11.33;;;;;;;;5019564;28;45490;-85
2022/09/12 07:56:23;;;;;;;;;;;;;;;;;;;;;
2022/09/12 07:59:24;;;;;;;;;15.67;13.33;;;;;;;;5052571;28;74185;-86
2022/09/12 08:02:05;;;;;;;;;15.33;12.67;;;;;;;;5033695;28;45290;-85
2022/09/12 08:04:30;;;;;;;;;16.33;16.00;;;;;;;;5040848;28;44844;-85
2022/09/12 08:07:02;;;;;;;;;13.00;13.00;;;;;;;;5050651;28;45510;-83
2022/09/12 08:09:27;;;;;;;;;16.67;13.33;;;;;;;;5031246;28;45419;-84
2022/09/12 08:12:31;;;;;;;;;20.33;16.67;;;;;;;;5051911;28;45263;-85
2022/09/12 08:15:09;;;;;;;;;18.00;15.00;;;;;;;;5052008;28;45432;-85
2022/09/12 08:18:06;;;;;;;;;;;;;;;;;;;;;
2022/09/12 08:21:06;;;;;;;;;17.67;14.33;;;;;;;;5031724;28;73526;-86
2022/09/12 08:23:32;;;;;;;;;25.67;20.67;;;;;;;;5039414;28;45505;-81
2022/09/12 08:26:32;;;;;;;;;20.00;16.33;;;;;;;;5070227;28;45497;-88
2022/09/12 08:29:24;;;;;;;;;14.33;11.33;;;;;;;;5055978;28;44883;-82
2022/09/12 08:32:13;;;;;;;;;22.33;21.67;;;;;;;;5048519;28;45891;-82
2022/09/12 08:34:42;;;;;;;;;15.33;12.67;;;;;;;;5049611;28;46765;-90
2022/09/12 08:37:10;;;;;;;;;19.67;18.67;;;;;;;;5053186;28;45485;-88
2022/09/12 08:39:36;;;;;;;;;14.67;14.67;;;;;;;;5069880;28;45387;-88
2022/09/12 08:42:05;;;;;;;;;23.00;17.33;;;;;;;;5047073;28;45753;-89
2022/09/12 08:44:40;;;;;;;;;17.33;13.00;;;;;;;;5078528;28;45613;-89
2022/09/12 08:47:10;;;;;;;;;18.00;15.67;;;;;;;;5096890;28;45136;-89
2022/09/12 08:49:55;;;;;;;;;13.33;13.33;;;;;;;;5095052;28;45255;-88
2022/09/12 08:52:26;;;;;;;;;17.00;14.33;;;;;;;;5058698;28;45370;-90
2022/09/12 08:54:55;;;;;;;;;11.00;11.00;;;;;;;;5078765;28;46441;-88
2022/09/12 08:57:23;;;;;;;;;17.67;14.33;;;;;;;;5060805;28;44626;-88
2022/09/12 08:59:49;;;;;;;;;18.33;15.67;;;;;;;;5078813;28;45166;-88
2022/09/12 09:02:33;;;;;;;;;18.67;16.67;;;;;;;;5065161;28;45747;-88
2022/09/12 09:05:11;;;;;;;;;15.67;13.00;;;;;;;;5067035;27;45236;-87
2022/09/12 09:07:53;;;;;;;;;14.33;13.00;;;;;;;;5082065;28;45297;-87
2022/09/12 09:10:37;;;;;;;;;14.00;14.00;;;;;;;;5065027;28;45202;-89
2022/09/12 09:13:03;;;;;;;;;16.33;13.33;;;;;;;;5058187;28;45921;-89
2022/09/12 09:15:40;;;;;;;;;14.00;11.00;;;;;;;;5054013;28;45414;-89
2022/09/12 09:18:19;;;;;;;;;12.00;11.00;;;;;;;;5053929;28;45417;-88
2022/09/12 09:20:48;;;;;;;;;11.50;9.75;;;;;;;;5069919;28;45264;-86
2022/09/12 09:23:25;;;;;;;;;12.25;11.25;;;;;;;;5051779;28;45249;-86
2022/09/12 09:26:25;;;;;;;;;11.75;11.25;;;;;;;;5051458;28;45511;-88
2022/09/12 09:29:17;;;;;;;;;11.75;10.00;;;;;;;;5036441;28;45346;-88
2022/09/12 09:31:44;;;;;;;;;9.00;8.75;;;;;;;;5048876;28;45191;-89
2022/09/12 09:34:49;;;;;;;;;12.25;10.25;;;;;;;;5051148;28;45551;-89
2022/09/12 09:37:20;;;;;;;;;11.00;9.25;;;;;;;;5017028;28;46256;-86
2022/09/12 09:39:54;;;;;;;;;8.00;6.25;;;;;;;;5051767;28;45396;-88
2022/09/12 09:42:31;;;;;;;;;8.00;8.00;;;;;;;;5055239;28;45595;-87
2022/09/12 09:45:05;;;;;;;;;7.75;7.75;;;;;;;;5054823;28;45610;-88
2022/09/12 09:47:59;;;;;;;;;9.00;7.25;;;;;;;;5067242;28;45105;-90
2022/09/12 09:50:26;;;;;;;;;5.00;5.00;;;;;;;;5056025;28;45480;-89
2022/09/12 09:53:03;;;;;;;;;5.50;5.50;;;;;;;;5058012;28;45316;-90
2022/09/12 09:55:39;;;;;;;;;7.00;7.00;;;;;;;;5063998;28;45170;-89
2022/09/12 09:58:07;;;;;;;;;10.75;8.00;;;;;;;;5049075;28;45393;-90
2022/09/12 10:00:36;;;;;;;;;5.50;4.50;;;;;;;;5056160;28;45623;-89
2022/09/12 10:03:08;;;;;;;;;6.50;5.50;;;;;;;;5066025;28;45368;-89
2022/09/12 10:05:54;;;;;;;;;4.50;4.50;;;;;;;;5084661;28;45330;-90
2022/09/12 10:08:36;;;;;;;;;5.00;5.00;;;;;;;;5064457;28;45187;-89
2022/09/12 10:11:13;;;;;;;;;5.75;5.75;;;;;;;;5068663;28;45379;-88
2022/09/12 10:14:03;;;;;;;;;3.50;3.50;;;;;;;;5061937;28;45359;-85
2022/09/12 10:16:29;;;;;;;;;5.25;4.50;;;;;;;;5058278;28;45656;-88
2022/09/12 10:19:02;;;;;;;;;3.75;3.75;;;;;;;;5075494;28;46064;-86
2022/09/12 10:21:31;;;;;;;;;4.50;3.00;;;;;;;;5058150;28;45507;-89
2022/09/12 10:24:43;;;;;;;;;5.00;3.00;;;;;;;;5037295;28;46021;-89
2022/09/12 10:27:40;;;;;;;;;4.00;3.00;;;;;;;;4974794;28;45582;-85
2022/09/12 10:30:34;;;;;;;;;2.75;2.75;;;;;;;;5063606;28;45390;-88
2022/09/12 10:33:32;;;;;;;;;3.00;3.00;;;;;;;;5049693;28;45737;-82
2022/09/12 10:36:14;;;;;;;;;3.00;3.00;;;;;;;;4992159;28;45654;-91
2022/09/12 10:45:34;;;;;;;;;2.00;2.00;;;;;;;;4932996;28;45386;-87
2022/09/12 10:48:00;;;;;;;;;3.00;1.00;;;;;;;;4927423;28;44843;-82
2022/09/12 10:54:09;;;;;;;;;4.50;2.75;;;;;;;;4928482;28;45485;-87
2022/09/12 10:56:51;;;;;;;;;2.00;2.00;;;;;;;;4981154;28;44909;-88
2022/09/12 10:59:34;;;;;;;;;2.00;2.00;;;;;;;;5031338;28;45393;-88
2022/09/12 11:02:16;;;;;;;;;2.25;2.00;;;;;;;;5065290;28;45415;-87
2022/09/12 11:05:23;;;;;;;;;6.00;2.50;;;;;;;;5062900;28;45513;-87
2022/09/12 11:08:26;;;;;;;;;;;;;;;;;;;;;
2022/09/12 11:11:20;;;;;;;;;2.50;2.50;;;;;;;;5065077;28;68561;-86
2022/09/12 11:13:55;;;;;;;;;3.00;3.00;;;;;;;;5022831;28;45096;-89
2022/09/12 11:16:53;;;;;;;;;3.25;2.00;;;;;;;;5019926;28;46015;-82
2022/09/12 11:20:06;;;;;;;;;2.75;2.75;;;;;;;;5053874;28;45844;-83
2022/09/12 11:29:40;;;;;;;;;3.00;3.00;;;;;;;;5056850;28;46365;-87
2022/09/12 11:39:02;;;;;;;;;;;;;;;;;;;;;
2022/09/12 11:41:56;;;;;;;;;3.00;2.00;;;;;;;;5001380;28;45974;-89
2022/09/12 11:44:27;;;;;;;;;2.50;2.50;;;;;;;;4997670;28;45811;-88
2022/09/12 11:47:01;;;;;;;;;3.00;3.00;;;;;;;;4995084;28;45643;-85
2022/09/12 11:49:34;;;;;;;;;2.00;2.00;;;;;;;;4983033;28;45864;-86
2022/09/12 11:53:00;;;;;;;;;3.75;3.75;;;;;;;;4991247;28;46194;-86
2022/09/12 11:55:58;;;;;;;;;;;;;;;;;;;;;
2022/09/12 11:58:37;;;;;;;;;3.75;3.00;;;;;;;;5073289;28;45292;-87
2022/09/12 12:01:26;;;;;;;;;1.00;1.00;;;;;;;;5060031;28;45055;-85
2022/09/12 12:04:06;;;;;;;;;2.25;2.25;;;;;;;;5066144;28;45514;-85
2022/09/12 12:09:57;;;;;;;;;2.00;1.75;;;;;;;;5045727;28;45484;-84
2022/09/12 12:13:01;;;;;;;;;2.25;2.00;;;;;;;;5050193;28;45691;-86
2022/09/12 12:18:36;;;;;;;;;0.00;0.00;;;;;;;;5033275;28;46571;-84
2022/09/12 12:21:38;;;;;;;;;4.00;1.75;;;;;;;;5062404;28;45538;-83
2022/09/12 12:24:34;;;;;;;;;;;;;;;;;;;;;
2022/09/12 12:27:23;;;;;;;;;2.00;2.00;;;;;;;;5027547;28;74919;-86
2022/09/12 12:30:52;;;;;;;;;;;;;;;;;;;;;
2022/09/12 12:33:51;;;;;;;;;1.50;1.50;;;;;;;;5026977;28;45434;-85
2022/09/12 12:36:39;;;;;;;;;1.00;1.00;;;;;;;;5023684;28;45813;-83
2022/09/12 13:00:37;;;;;;;;;2.00;2.00;;;;;;;;5060641;28;45343;-73
2022/09/12 13:03:03;;;;;;;;;1.25;1.25;;;;;;;;5071621;27;46465;-73
2022/09/12 13:05:37;;;;;;;;;2.00;2.00;;;;;;;;5051612;28;45984;-71
2022/09/12 13:08:06;;;;;;;;;3.25;1.50;;;;;;;;5069288;28;46005;-73
2022/09/12 13:10:32;;;;;;;;;2.00;2.00;;;;;;;;5046322;28;45717;-72
2022/09/12 13:13:00;;;;;;;;;1.00;1.00;;;;;;;;5044224;28;48407;-72
2022/09/12 13:15:34;;;;;;;;;2.50;2.25;;;;;;;;5069337;28;45587;-71
2022/09/12 13:18:01;;;;;;;;;1.00;1.00;;;;;;;;5069387;28;45503;-71
2022/09/12 13:20:30;;;;;;;;;1.50;1.50;;;;;;;;5075140;28;45529;-73
2022/09/12 13:22:56;;;;;;;;;3.00;2.00;;;;;;;;5075968;28;45721;-73
2022/09/12 13:25:32;;;;;;;;;2.75;2.75;;;;;;;;5075972;28;45427;-73
2022/09/12 13:28:10;;;;;;;;;1.75;1.75;;;;;;;;5061001;28;45387;-72
2022/09/12 13:30:36;;;;;;;;;1.00;1.00;;;;;;;;5077439;28;45811;-73
2022/09/12 13:33:08;;;;;;;;;2.25;2.25;;;;;;;;5079501;28;46214;-74
2022/09/12 13:35:41;;;;;;;;;2.00;2.00;;;;;;;;5079421;28;45402;-75
2022/09/12 13:38:16;;;;;;;;;1.25;1.25;;;;;;;;5079567;27;45301;-73
2022/09/12 13:41:00;;;;;;;;;1.75;1.75;;;;;;;;5079410;28;45631;-71
2022/09/12 13:43:34;;;;;;;;;0.25;0.25;;;;;;;;5075896;28;45409;-72
2022/09/12 13:46:00;;;;;;;;;1.25;1.25;;;;;;;;5071616;27;45468;-71
2022/09/12 13:48:25;;;;;;;;;1.00;1.00;;;;;;;;5073634;28;45356;-72
2022/09/12 13:50:52;;;;;;;;;2.00;2.00;;;;;;;;5078857;28;45404;-73
2022/09/12 13:53:25;;;;;;;;;2.50;1.75;;;;;;;;5078961;28;46464;-73
2022/09/12 13:55:53;;;;;;;;;1.75;1.75;;;;;;;;5079099;28;45556;-72
2022/09/12 13:58:23;;;;;;;;;3.00;1.75;;;;;;;;5078863;28;45318;-71
2022/09/12 14:01:03;;;;;;;;;3.25;1.25;;;;;;;;5082769;27;45491;-73
2022/09/12 14:06:15;;;;;;;;;2.00;2.00;;;;;;;;5078145;28;45345;-72
2022/09/12 14:08:41;;;;;;;;;1.00;1.00;;;;;;;;5076829;27;45298;-72
2022/09/12 14:11:07;;;;;;;;;1.00;1.00;;;;;;;;5060721;28;45314;-72
2022/09/12 14:13:33;;;;;;;;;0.75;0.75;;;;;;;;5078723;28;46798;-72
2022/09/12 14:15:58;;;;;;;;;1.50;1.50;;;;;;;;5078540;27;45641;-73
2022/09/12 14:18:27;;;;;;;;;1.00;1.00;;;;;;;;5077672;27;45326;-73
2022/09/12 14:20:56;;;;;;;;;1.00;1.00;;;;;;;;5078747;28;46143;-72
2022/09/12 14:23:28;;;;;;;;;1.00;1.00;;;;;;;;5078184;28;45683;-72
2022/09/12 14:25:55;;;;;;;;;1.50;1.50;;;;;;;;5077807;27;45704;-71
2022/09/12 14:28:20;;;;;;;;;2.25;1.00;;;;;;;;5078315;28;45238;-73
2022/09/12 14:31:00;;;;;;;;;1.00;1.00;;;;;;;;5109913;22;46879;-73
2022/09/12 14:33:25;;;;;;;;;2.50;1.75;;;;;;;;5084422;27;46575;-73
2022/09/12 14:35:52;;;;;;;;;1.75;1.75;;;;;;;;5088986;27;45855;-73
2022/09/12 14:38:37;;;;;;;;;1.75;1.75;;;;;;;;5094165;27;45434;-73
2022/09/12 14:41:06;;;;;;;;;2.00;2.00;;;;;;;;5078980;27;45694;-73
2022/09/12 14:43:36;;;;;;;;;1.50;1.00;;;;;;;;5090599;27;46641;-76
2022/09/12 14:46:03;;;;;;;;;2.00;2.00;;;;;;;;5090837;27;45416;-74
2022/09/12 14:48:31;;;;;;;;;2.00;2.00;;;;;;;;5091620;27;45410;-74
2022/09/12 14:50:56;;;;;;;;;1.25;1.25;;;;;;;;5098099;27;45304;-75
2022/09/12 14:53:23;;;;;;;;;1.00;1.00;;;;;;;;5086498;27;45684;-77
2022/09/12 14:55:52;;;;;;;;;0.80;0.80;;;;;;;;5092617;27;45408;-75
2022/09/12 14:58:17;;;;;;;;;1.25;1.25;;;;;;;;5091474;27;45394;-77
2022/09/12 15:01:01;;;;;;;;;1.00;1.00;;;;;;;;5077921;27;45341;-75
2022/09/12 15:03:30;;;;;;;;;1.25;0.50;;;;;;;;5080422;27;47078;-79
2022/09/12 15:05:55;;;;;;;;;1.00;1.00;;;;;;;;5079071;27;45418;-77
2022/09/12 15:08:20;;;;;;;;;1.00;1.00;;;;;;;;5079008;27;45780;-76
2022/09/12 15:10:46;;;;;;;;;1.25;1.25;;;;;;;;5085182;27;45417;-79
2022/09/12 15:13:17;;;;;;;;;1.00;1.00;;;;;;;;5093996;27;45620;-78
2022/09/12 15:15:44;;;;;;;;;2.00;1.00;;;;;;;;5094795;27;45532;-76
2022/09/12 15:18:09;;;;;;;;;2.00;2.00;;;;;;;;5088184;27;45385;-76
2022/09/12 15:20:36;;;;;;;;;2.00;1.00;;;;;;;;5090312;27;45417;-79
2022/09/12 15:23:01;;;;;;;;;2.00;1.75;;;;;;;;5082743;27;46294;-81
2022/09/12 15:25:27;;;;;;;;;1.75;1.00;;;;;;;;5098172;27;45752;-81
2022/09/12 15:27:52;;;;;;;;;2.00;1.00;;;;;;;;5090569;27;45690;-74
2022/09/12 15:30:18;;;;;;;;;1.00;1.00;;;;;;;;5076233;27;45698;-73
2022/09/12 15:32:43;;;;;;;;;1.00;1.00;;;;;;;;5077055;27;46460;-76
2022/09/12 15:35:21;;;;;;;;;0.25;0.25;;;;;;;;5078489;27;46354;-74
2022/09/12 15:37:46;;;;;;;;;1.00;1.00;;;;;;;;5083720;27;45498;-76
2022/09/12 15:40:11;;;;;;;;;1.75;1.75;;;;;;;;5080700;27;45515;-74
2022/09/12 15:42:37;;;;;;;;;0.00;0.00;;;;;;;;5086021;27;46998;-72
2022/09/12 15:45:10;;;;;;;;;1.00;1.00;;;;;;;;5084539;27;45655;-74
2022/09/12 15:47:35;;;;;;;;;3.00;2.00;;;;;;;;5070131;27;46072;-73
2022/09/12 15:50:00;;;;;;;;;2.00;2.00;;;;;;;;5089320;27;45834;-75
2022/09/12 15:52:26;;;;;;;;;1.00;1.00;;;;;;;;5083422;27;45950;-73
2022/09/12 15:54:51;;;;;;;;;2.00;0.25;;;;;;;;5084479;27;45425;-72
2022/09/12 15:57:16;;;;;;;;;1.00;1.00;;;;;;;;5065869;27;45751;-74
2022/09/12 15:59:42;;;;;;;;;0.75;0.75;;;;;;;;5064688;27;45548;-73
2022/09/12 16:02:08;;;;;;;;;3.00;2.00;;;;;;;;5062816;27;45421;-74
2022/09/12 16:04:33;;;;;;;;;1.50;1.00;;;;;;;;5059981;27;45517;-73
2022/09/12 16:06:59;;;;;;;;;3.00;1.50;;;;;;;;5061081;27;45909;-75
2022/09/12 16:09:24;;;;;;;;;3.75;3.75;;;;;;;;5066430;27;45941;-74
2022/09/12 16:11:49;;;;;;;;;1.25;1.25;;;;;;;;5069947;27;46950;-74
2022/09/12 16:14:18;;;;;;;;;1.00;0.00;;;;;;;;5059038;28;45799;-74
2022/09/12 16:16:44;;;;;;;;;1.75;1.75;;;;;;;;5064128;27;45529;-75
2022/09/12 16:19:10;;;;;;;;;1.00;1.00;;;;;;;;5063838;28;45614;-76
2022/09/12 16:21:36;;;;;;;;;3.75;2.50;;;;;;;;5064806;27;45602;-74
2022/09/12 16:24:02;;;;;;;;;1.00;1.00;;;;;;;;5065979;27;45483;-74
2022/09/12 16:26:27;;;;;;;;;1.00;1.00;;;;;;;;5063208;27;45481;-77
2022/09/12 16:28:53;;;;;;;;;1.00;1.00;;;;;;;;5059293;27;45975;-72
2022/09/12 16:31:19;;;;;;;;;4.00;2.00;;;;;;;;5056687;27;46986;-74
2022/09/12 16:33:44;;;;;;;;;1.50;1.50;;;;;;;;5057675;28;45769;-74
2022/09/12 16:36:11;;;;;;;;;1.00;1.00;;;;;;;;5062538;27;45466;-76
2022/09/12 16:38:43;;;;;;;;;1.75;1.75;;;;;;;;5065077;27;46050;-72
2022/09/12 16:41:09;;;;;;;;;1.00;1.00;;;;;;;;5065878;27;46910;-72
2022/09/12 16:43:35;;;;;;;;;2.25;2.25;;;;;;;;5064858;27;45868;-73
2022/09/12 16:46:02;;;;;;;;;5.00;4.00;;;;;;;;5059106;27;45656;-74
2022/09/12 16:48:27;;;;;;;;;4.75;3.00;;;;;;;;5062201;27;45420;-71
2022/09/12 16:51:00;;;;;;;;;1.25;1.25;;;;;;;;5063104;27;46070;-73
2022/09/12 16:53:28;;;;;;;;;0.00;0.00;;;;;;;;5073367;27;45247;-73
2022/09/12 16:55:53;;;;;;;;;3.00;1.75;;;;;;;;5073622;28;45656;-69
2022/09/12 16:58:18;;;;;;;;;5.00;3.75;;;;;;;;5067115;27;45451;-73
2022/09/12 17:00:44;;;;;;;;;2.00;2.00;;;;;;;;5063169;27;46116;-73
2022/09/12 17:03:10;;;;;;;;;2.00;2.00;;;;;;;;5064829;27;45408;-77
2022/09/12 17:05:35;;;;;;;;;5.50;2.00;;;;;;;;5060332;28;45534;-74
2022/09/12 17:08:01;;;;;;;;;1.00;1.00;;;;;;;;5063894;27;46076;-78
2022/09/12 17:10:26;;;;;;;;;2.00;2.00;;;;;;;;5061030;27;45549;-75
2022/09/12 17:12:52;;;;;;;;;2.00;2.00;;;;;;;;5063706;27;45937;-73
2022/09/12 17:15:17;;;;;;;;;2.00;2.00;;;;;;;;5061272;27;45690;-77
2022/09/12 17:17:43;;;;;;;;;3.00;2.00;;;;;;;;5065116;28;45708;-79
2022/09/12 17:20:08;;;;;;;;;3.25;1.75;;;;;;;;5063398;27;47505;-81
2022/09/12 17:22:33;;;;;;;;;3.00;3.00;;;;;;;;5064892;28;45810;-80
2022/09/12 17:24:59;;;;;;;;;3.75;2.75;;;;;;;;5064377;27;45353;-81
2022/09/12 17:27:24;;;;;;;;;2.75;2.75;;;;;;;;5060567;28;45733;-82
2022/09/12 17:29:50;;;;;;;;;2.00;2.00;;;;;;;;5064107;27;46323;-74
2022/09/12 17:32:15;;;;;;;;;3.25;3.00;;;;;;;;5061582;27;45562;-77
2022/09/12 17:34:40;;;;;;;;;1.25;1.25;;;;;;;;5080407;27;45709;-82
2022/09/12 17:37:05;;;;;;;;;3.50;3.50;;;;;;;;5060212;27;46360;-81
2022/09/12 17:39:31;;;;;;;;;5.00;5.00;;;;;;;;5059781;28;46301;-77
2022/09/12 17:41:57;;;;;;;;;6.00;4.25;;;;;;;;5057256;27;45784;-80
2022/09/12 17:44:23;;;;;;;;;4.00;2.75;;;;;;;;5063081;28;45538;-80
2022/09/12 17:46:48;;;;;;;;;4.00;3.00;;;;;;;;5058774;28;46515;-81
2022/09/12 17:49:14;;;;;;;;;6.00;4.00;;;;;;;;5060317;28;46330;-82
2022/09/12 17:51:39;;;;;;;;;4.00;4.00;;;;;;;;5061461;28;45457;-79
2022/09/12 17:54:15;;;;;;;;;2.50;2.50;;;;;;;;5059809;28;45848;-75
2022/09/12 17:56:41;;;;;;;;;2.75;2.00;;;;;;;;5057742;28;46627;-76
2022/09/12 17:59:07;;;;;;;;;1.50;1.00;;;;;;;;5059917;27;45800;-77
2022/09/12 18:04:18;;;;;;;;;4.00;1.50;;;;;;;;5060244;28;45825;-77
2022/09/12 18:06:47;;;;;;;;;4.75;2.75;;;;;;;;5060526;27;45514;-77
2022/09/12 18:09:13;;;;;;;;;5.00;3.50;;;;;;;;5068741;28;45864;-78
2022/09/12 18:11:38;;;;;;;;;4.25;4.25;;;;;;;;5064737;28;45802;-80
2022/09/12 18:14:04;;;;;;;;;4.00;4.00;;;;;;;;5064567;28;46495;-79
2022/09/12 18:16:30;;;;;;;;;2.00;2.00;;;;;;;;5073610;28;45851;-79
2022/09/12 18:18:55;;;;;;;;;4.00;4.00;;;;;;;;5075287;28;46188;-80
2022/09/12 18:21:21;;;;;;;;;3.50;3.50;;;;;;;;5071776;27;45479;-78
2022/09/12 18:23:46;;;;;;;;;2.25;2.25;;;;;;;;5071978;28;46100;-78
2022/09/12 18:26:12;;;;;;;;;2.00;2.00;;;;;;;;5065758;28;45598;-77
2022/09/12 18:28:38;;;;;;;;;1.50;1.50;;;;;;;;5072480;27;46063;-79
2022/09/12 18:31:08;;;;;;;;;2.00;2.00;;;;;;;;5072697;28;45462;-75
2022/09/12 18:33:33;;;;;;;;;3.00;3.00;;;;;;;;5067273;28;45671;-80
2022/09/12 18:36:03;;;;;;;;;2.25;2.25;;;;;;;;5076712;27;45222;-76
2022/09/12 18:38:29;;;;;;;;;3.25;2.00;;;;;;;;5068463;28;45829;-76
2022/09/12 18:41:24;;;;;;;;;7.75;4.00;;;;;;;;5072189;27;45639;-77
2022/09/12 18:43:53;;;;;;;;;1.00;0.00;;;;;;;;5056881;27;45485;-78
2022/09/12 18:46:19;;;;;;;;;3.00;3.00;;;;;;;;5075789;28;45453;-76
2022/09/12 18:48:44;;;;;;;;;8.00;6.67;;;;;;;;5079410;27;47500;-77
2022/09/12 18:51:11;;;;;;;;;3.50;3.25;;;;;;;;5072761;27;45511;-77
2022/09/12 18:53:37;;;;;;;;;5.50;3.00;;;;;;;;5059246;27;45648;-78
2022/09/12 18:56:12;;;;;;;;;5.00;4.00;;;;;;;;5081884;27;45512;-79
2022/09/12 18:58:42;;;;;;;;;5.00;4.00;;;;;;;;5073836;28;45945;-79
2022/09/12 19:01:21;;;;;;;;;3.75;3.75;;;;;;;;5078539;27;45561;-77
2022/09/12 19:03:46;;;;;;;;;3.00;3.00;;;;;;;;5071398;27;45401;-76
2022/09/12 19:06:12;;;;;;;;;4.25;3.00;;;;;;;;5071315;27;45405;-78
2022/09/12 19:08:38;;;;;;;;;12.00;12.00;;;;;;;;5070638;27;45874;-80
2022/09/12 19:11:04;;;;;;;;;5.00;5.00;;;;;;;;5069758;27;45695;-78
2022/09/12 19:13:29;;;;;;;;;7.75;5.00;;;;;;;;5066110;27;45731;-78
2022/09/12 19:15:54;;;;;;;;;5.33;5.33;;;;;;;;5071137;28;45470;-77
2022/09/12 19:18:20;;;;;;;;;4.75;4.00;;;;;;;;5068671;27;47323;-77
2022/09/12 19:20:51;;;;;;;;;3.75;3.75;;;;;;;;5075672;27;45609;-78
2022/09/12 19:23:17;;;;;;;;;5.25;5.25;;;;;;;;5076529;27;45435;-78
2022/09/12 19:25:44;;;;;;;;;4.25;4.25;;;;;;;;5081954;27;45822;-78
2022/09/12 19:28:09;;;;;;;;;6.50;3.50;;;;;;;;5079080;27;47210;-78
2022/09/12 19:30:34;;;;;;;;;4.00;4.00;;;;;;;;5072371;27;45514;-78